Time;durP1;ratioP1;P1;durP2;ratioP2;P2;SDS_P1;SDS_P2;PMS_P1;PMS_P2;Temp;Humidity;BMP_temperature;BMP_pressure;BME280_temperature;BME280_humidity;BME280_pressure;Samples;Min_cycle;Max_cycle;Signal;HPM_P1;HPM_P2
2022/04/19 00:01:32;;;;;;;3.30;2.60;;;19.90;35.10;21.20;100621.00;;;;5029457;28;20561;-48
2022/04/19 00:03:58;;;;;;;2.63;2.43;;;19.90;35.10;21.20;100624.00;;;;5030003;28;20175;-48
2022/04/19 00:06:24;;;;;;;3.27;2.40;;;19.90;35.30;21.20;100618.00;;;;5029680;28;20175;-49
2022/04/19 00:08:51;;;;;;;3.83;2.40;;;19.80;35.20;21.10;100628.00;;;;5028829;28;20175;-47
2022/04/19 00:11:17;;;;;;;2.60;2.40;;;19.80;35.30;21.10;100625.00;;;;5028623;28;20287;-49
2022/04/19 00:13:43;;;;;;;2.40;2.20;;;19.80;35.30;21.10;100625.00;;;;5010850;28;20466;-49
2022/04/19 00:16:09;;;;;;;2.43;2.23;;;19.80;35.00;21.10;100618.00;;;;5008628;28;20207;-49
2022/04/19 00:18:34;;;;;;;2.43;2.23;;;19.80;35.00;21.10;100625.00;;;;5008325;28;20633;-49
2022/04/19 00:21:02;;;;;;;2.80;2.60;;;19.80;35.40;21.00;100623.00;;;;5009120;28;20173;-49
2022/04/19 00:23:28;;;;;;;2.50;2.30;;;19.70;35.10;21.00;100626.00;;;;5007536;28;20594;-49
2022/04/19 00:25:54;;;;;;;3.27;2.27;;;19.80;35.40;21.00;100619.00;;;;5008674;28;20430;-48
2022/04/19 00:28:20;;;;;;;3.03;2.43;;;19.70;35.30;21.00;100610.00;;;;5008724;28;20200;-49
2022/04/19 00:30:47;;;;;;;2.77;2.40;;;19.70;35.60;20.90;100602.00;;;;5008621;28;20187;-48
2022/04/19 00:33:12;;;;;;;2.70;2.50;;;19.70;35.60;20.90;100611.00;;;;5008246;28;20534;-50
2022/04/19 00:35:38;;;;;;;2.50;2.30;;;19.60;35.50;20.90;100614.00;;;;5008678;28;20199;-48
2022/04/19 00:38:04;;;;;;;2.37;2.17;;;19.70;35.40;20.80;100606.00;;;;5008249;28;20752;-48
2022/04/19 00:40:30;;;;;;;2.77;2.40;;;19.60;35.30;20.80;100610.00;;;;5006964;28;20176;-48
2022/04/19 00:42:57;;;;;;;2.60;2.40;;;19.60;35.40;20.80;100608.00;;;;5008181;28;20285;-49
2022/04/19 00:45:25;;;;;;;2.50;2.20;;;19.60;35.40;20.80;100614.00;;;;5008119;28;20237;-48
2022/04/19 00:47:51;;;;;;;2.40;2.20;;;19.60;35.60;20.80;100611.00;;;;5008009;28;20165;-48
2022/04/19 00:50:17;;;;;;;2.60;2.30;;;19.60;35.80;20.80;100603.00;;;;5007090;28;20204;-48
2022/04/19 00:52:43;;;;;;;4.13;2.40;;;19.60;35.90;20.80;100606.00;;;;5006620;28;20612;-47
2022/04/19 00:55:09;;;;;;;2.30;2.10;;;19.60;35.70;20.80;100599.00;;;;5009003;28;20509;-49
2022/04/19 00:57:37;;;;;;;2.00;1.90;;;19.50;35.60;20.80;100594.00;;;;5007801;28;20784;-47
2022/04/19 01:00:05;;;;;;;2.40;2.20;;;19.50;35.80;20.80;100606.00;;;;5007957;28;20168;-48
2022/04/19 01:02:31;;;;;;;2.53;2.33;;;19.50;35.80;20.80;100605.00;;;;5008185;28;20192;-50
2022/04/19 01:04:57;;;;;;;2.53;2.30;;;19.50;36.00;20.70;100596.00;;;;5007828;28;20203;-48
2022/04/19 01:07:23;;;;;;;2.30;2.00;;;19.40;36.00;20.70;100597.00;;;;5007770;28;20191;-49
2022/04/19 01:09:48;;;;;;;2.40;2.20;;;19.40;36.00;20.70;100601.00;;;;5007697;28;20385;-49
2022/04/19 01:15:09;;;;;;;2.40;2.20;;;19.30;36.00;20.60;100592.00;;;;5007731;28;20257;-49
2022/04/19 01:17:39;;;;;;;2.40;2.20;;;19.30;36.10;20.60;100592.00;;;;5007672;28;20211;-49
2022/04/19 01:20:07;;;;;;;2.40;2.20;;;19.30;36.20;20.60;100586.00;;;;5007899;28;20259;-49
2022/04/19 01:22:36;;;;;;;2.40;2.20;;;19.30;36.20;20.60;100582.00;;;;5006930;28;20192;-49
2022/04/19 01:25:02;;;;;;;2.90;2.30;;;19.20;36.20;20.50;100581.00;;;;5007385;28;20168;-49
2022/04/19 01:27:28;;;;;;;2.50;2.30;;;19.30;36.40;20.50;100590.00;;;;5007516;28;20267;-49
2022/04/19 01:30:00;;;;;;;2.40;2.20;;;19.20;36.30;20.50;100588.00;;;;5007505;28;20234;-49
2022/04/19 01:32:29;;;;;;;3.03;2.20;;;19.20;36.40;20.20;100587.00;;;;4990803;28;20188;-49
2022/04/19 01:35:12;;;;;;;2.67;2.47;;;19.20;36.40;20.40;100582.00;;;;5006761;28;20203;-49
2022/04/19 01:37:40;;;;;;;2.40;2.20;;;19.20;36.40;20.30;100579.00;;;;5007136;28;20514;-49
2022/04/19 01:40:19;;;;;;;2.50;2.30;;;19.10;36.50;20.40;100580.00;;;;5007701;28;20306;-49
2022/04/19 01:42:58;;;;;;;2.40;2.20;;;19.10;36.50;20.30;100582.00;;;;5007226;28;20196;-49
2022/04/19 01:45:25;;;;;;;2.73;2.40;;;19.10;36.60;20.30;100582.00;;;;5006918;28;20255;-49
2022/04/19 01:47:54;;;;;;;2.60;2.40;;;19.10;36.60;20.30;100570.00;;;;5006902;28;20195;-49
2022/04/19 01:50:20;;;;;;;3.17;2.30;;;19.00;36.60;20.20;100575.00;;;;5006178;28;20176;-49
2022/04/19 01:52:47;;;;;;;2.90;2.30;;;19.10;36.60;20.20;100564.00;;;;5007100;28;20565;-48
2022/04/19 01:55:15;;;;;;;2.50;2.30;;;19.10;36.60;20.10;100577.00;;;;5005551;28;20633;-49
2022/04/19 01:57:45;;;;;;;2.30;2.10;;;19.00;36.60;20.10;100583.00;;;;5006830;28;20176;-49
2022/04/19 02:00:11;;;;;;;3.20;2.40;;;19.00;36.60;20.10;100574.00;;;;5006858;28;20306;-49
2022/04/19 02:02:37;;;;;;;2.50;2.30;;;19.00;36.70;20.00;100571.00;;;;5006427;28;20188;-49
2022/04/19 02:05:04;;;;;;;2.20;2.10;;;18.90;36.60;20.00;100569.00;;;;5007013;28;20176;-48
2022/04/19 02:07:32;;;;;;;2.40;2.20;;;18.90;36.70;20.00;100577.00;;;;5006290;28;20538;-49
2022/04/19 02:09:59;;;;;;;2.47;2.27;;;18.90;36.80;19.90;100563.00;;;;5006524;28;20657;-48
2022/04/19 02:12:25;;;;;;;2.47;2.27;;;18.90;36.80;19.80;100571.00;;;;5006134;28;20241;-49
2022/04/19 02:14:51;;;;;;;3.27;2.20;;;18.80;36.80;19.80;100562.00;;;;5005750;28;20219;-48
2022/04/19 02:17:20;;;;;;;2.40;2.20;;;18.80;36.90;19.80;100573.00;;;;5006277;28;20172;-49
2022/04/19 02:19:49;;;;;;;2.40;2.20;;;18.80;36.90;19.80;100568.00;;;;5006690;28;20202;-48
2022/04/19 02:22:15;;;;;;;2.33;2.13;;;18.80;36.90;19.70;100576.00;;;;5006394;28;20195;-49
2022/04/19 02:24:40;;;;;;;2.20;2.07;;;18.80;37.00;19.70;100566.00;;;;5005854;28;20210;-48
2022/04/19 02:27:06;;;;;;;2.87;2.10;;;18.70;37.00;19.70;100552.00;;;;5006338;28;20229;-48
2022/04/19 02:29:35;;;;;;;2.47;2.27;;;18.70;37.10;19.60;100572.00;;;;5006359;28;20179;-48
2022/04/19 02:32:01;;;;;;;2.50;2.30;;;18.60;37.10;19.60;100567.00;;;;5006249;28;20557;-47
2022/04/19 02:34:26;;;;;;;2.47;2.27;;;18.60;37.10;19.60;100564.00;;;;5006450;28;20196;-47
2022/04/19 02:36:53;;;;;;;2.47;2.27;;;18.60;37.10;19.60;100561.00;;;;5006116;28;20671;-49
2022/04/19 02:39:20;;;;;;;2.60;2.33;;;18.60;37.10;19.50;100562.00;;;;5006479;28;20168;-48
2022/04/19 02:41:46;;;;;;;2.37;2.17;;;18.60;37.10;19.50;100568.00;;;;5005848;28;20276;-48
2022/04/19 02:44:13;;;;;;;2.37;2.17;;;18.50;37.00;19.50;100562.00;;;;5006025;28;20173;-48
2022/04/19 02:46:38;;;;;;;2.50;2.30;;;18.50;37.00;19.40;100560.00;;;;5006159;28;20202;-49
2022/04/19 02:49:05;;;;;;;2.23;2.10;;;18.50;37.00;19.40;100566.00;;;;5005675;28;20168;-47
2022/04/19 02:51:33;;;;;;;2.40;2.20;;;18.50;37.00;19.40;100556.00;;;;5006338;28;20199;-49
2022/04/19 02:53:59;;;;;;;2.77;2.20;;;18.50;37.00;19.30;100564.00;;;;5005792;28;20168;-48
2022/04/19 02:56:25;;;;;;;2.57;2.00;;;18.50;37.70;19.30;100561.00;;;;5005522;28;20799;-49
2022/04/19 02:58:51;;;;;;;2.63;2.43;;;18.40;37.00;19.30;100556.00;;;;5006028;28;20222;-49
2022/04/19 03:01:16;;;;;;;2.70;2.30;;;18.40;37.60;19.30;100558.00;;;;5005511;28;20631;-50
2022/04/19 03:03:43;;;;;;;2.33;2.13;;;18.40;37.10;19.20;100544.00;;;;5005772;28;20341;-49
2022/04/19 03:06:09;;;;;;;3.43;2.30;;;18.40;37.10;19.20;100550.00;;;;5005907;28;20213;-49
2022/04/19 03:08:35;;;;;;;2.30;2.10;;;18.40;37.10;19.20;100562.00;;;;5005841;28;20242;-49
2022/04/19 03:11:04;;;;;;;3.07;2.33;;;18.40;37.10;19.20;100535.00;;;;5006109;28;20254;-49
2022/04/19 03:13:31;;;;;;;3.27;2.60;;;18.30;37.00;19.10;100547.00;;;;5004773;28;20259;-49
2022/04/19 03:15:57;;;;;;;2.33;2.13;;;18.30;37.20;19.10;100550.00;;;;5005703;28;20202;-48
2022/04/19 03:18:23;;;;;;;2.53;2.33;;;18.30;37.20;19.10;100544.00;;;;5005390;28;20171;-49
2022/04/19 03:20:49;;;;;;;2.17;2.07;;;18.20;37.20;19.10;100539.00;;;;5005585;28;20170;-49
2022/04/19 03:28:45;;;;;;;3.13;2.20;;;18.20;37.30;19.00;100535.00;;;;5008170;28;20163;-49
2022/04/19 03:31:12;;;;;;;3.00;2.10;;;18.20;38.60;19.00;100535.00;;;;5008228;28;20277;-48
2022/04/19 03:33:39;;;;;;;2.40;2.20;;;18.10;37.60;19.00;100535.00;;;;5005874;28;20186;-47
2022/04/19 03:36:05;;;;;;;2.50;2.30;;;18.10;37.50;19.00;100540.00;;;;5005363;28;20233;-48
2022/04/19 03:38:31;;;;;;;2.80;2.33;;;18.10;37.50;18.70;100541.00;;;;5005712;28;20188;-47
2022/04/19 03:40:57;;;;;;;13.43;12.13;;;18.10;37.60;18.90;100539.00;;;;5005540;28;20162;-47
2022/04/19 03:43:23;;;;;;;5.10;4.43;;;18.10;37.50;18.90;100539.00;;;;5005264;28;20658;-48
2022/04/19 03:45:49;;;;;;;4.57;4.17;;;18.10;37.50;18.90;100543.00;;;;5006550;28;20774;-47
2022/04/19 03:48:15;;;;;;;3.13;2.80;;;18.00;37.40;18.80;100540.00;;;;5011712;28;20200;-46
2022/04/19 03:50:41;;;;;;;3.40;3.10;;;18.00;37.50;18.80;100534.00;;;;5005135;28;20924;-47
2022/04/19 03:53:07;;;;;;;2.90;2.60;;;18.00;37.60;18.80;100542.00;;;;5004875;28;20276;-46
2022/04/19 03:55:33;;;;;;;3.10;2.80;;;17.90;37.50;18.70;100537.00;;;;5004036;28;20201;-53
2022/04/19 03:57:58;;;;;;;3.83;2.60;;;17.90;37.60;18.50;100540.00;;;;5005441;28;20178;-53
2022/04/19 04:00:24;;;;;;;3.07;2.77;;;18.00;37.80;18.70;100543.00;;;;5005486;28;20224;-54
2022/04/19 04:02:50;;;;;;;3.10;2.80;;;18.00;37.80;18.70;100539.00;;;;5004816;28;20222;-53
2022/04/19 04:05:16;;;;;;;2.83;2.57;;;17.90;37.80;18.70;100543.00;;;;5004912;28;20545;-53
2022/04/19 04:07:42;;;;;;;3.30;2.80;;;18.00;37.80;18.70;100543.00;;;;5005136;28;20741;-53
2022/04/19 04:10:09;;;;;;;4.57;2.67;;;18.00;37.80;18.70;100532.00;;;;5005088;28;20166;-55
2022/04/19 04:12:34;;;;;;;4.27;2.70;;;17.90;37.80;18.70;100541.00;;;;5004922;28;20220;-53
2022/04/19 04:15:03;;;;;;;3.13;2.53;;;18.00;37.70;18.70;100537.00;;;;5004801;28;20231;-52
2022/04/19 04:17:28;;;;;;;3.27;2.93;;;18.00;37.80;18.70;100551.00;;;;5005210;28;20172;-54
2022/04/19 04:19:54;;;;;;;3.00;2.70;;;18.00;37.80;18.60;100560.00;;;;5005293;28;20187;-53
2022/04/19 04:22:20;;;;;;;3.23;2.93;;;18.00;38.50;18.60;100561.00;;;;5005959;28;20212;-53
2022/04/19 04:24:45;;;;;;;3.17;2.47;;;17.90;37.80;18.60;100558.00;;;;5006214;28;20516;-53
2022/04/19 04:27:11;;;;;;;3.43;2.70;;;17.90;37.80;18.60;100555.00;;;;5008998;28;20182;-54
2022/04/19 04:29:37;;;;;;;2.50;2.30;;;17.90;37.80;18.60;100565.00;;;;5009091;28;20178;-54
2022/04/19 04:32:04;;;;;;;3.40;2.53;;;18.00;37.80;18.60;100558.00;;;;5009219;28;20366;-53
2022/04/19 04:34:30;;;;;;;2.60;2.40;;;18.00;37.80;18.40;100558.00;;;;5008253;28;20290;-54
2022/04/19 04:36:56;;;;;;;2.67;2.43;;;17.90;37.70;18.60;100555.00;;;;5008735;28;20229;-54
2022/04/19 04:39:21;;;;;;;2.60;2.40;;;17.90;37.70;18.50;100555.00;;;;5008813;28;20552;-53
2022/04/19 04:41:47;;;;;;;2.47;2.27;;;17.90;37.80;18.50;100558.00;;;;5008752;28;20188;-53
2022/04/19 04:44:13;;;;;;;2.70;2.23;;;17.90;37.80;18.60;100558.00;;;;5008297;28;20175;-53
2022/04/19 04:49:41;;;;;;;2.60;2.40;;;17.90;37.80;18.50;100567.00;;;;5008347;28;20782;-53
2022/04/19 04:52:08;;;;;;;3.17;2.30;;;17.80;37.70;18.50;100559.00;;;;5007817;28;20189;-52
2022/04/19 04:54:35;;;;;;;3.63;2.50;;;17.90;38.40;18.50;100555.00;;;;5006168;28;20275;-53
2022/04/19 04:57:05;;;;;;;2.47;2.27;;;17.80;37.70;18.50;100564.00;;;;5007731;28;20167;-53
2022/04/19 04:59:32;;;;;;;2.50;2.30;;;17.80;37.70;18.50;100557.00;;;;5006889;28;20172;-53
2022/04/19 05:01:58;;;;;;;2.50;2.30;;;17.80;37.70;18.50;100560.00;;;;5007662;28;20261;-52
2022/04/19 05:04:23;;;;;;;2.87;2.37;;;17.80;37.60;18.50;100565.00;;;;5007464;28;20168;-52
2022/04/19 05:06:49;;;;;;;2.83;2.40;;;17.80;37.60;18.50;100565.00;;;;5016431;28;20239;-53
2022/04/19 05:09:15;;;;;;;2.50;2.30;;;17.80;37.70;18.50;100564.00;;;;5019502;28;20167;-52
2022/04/19 05:11:40;;;;;;;2.37;2.10;;;17.80;37.70;18.50;100561.00;;;;5014436;28;20176;-53
2022/04/19 05:14:07;;;;;;;3.27;2.30;;;17.80;37.70;18.50;100565.00;;;;5007538;28;20541;-53
2022/04/19 05:16:35;;;;;;;2.43;2.20;;;17.80;37.70;18.50;100572.00;;;;5007374;28;20235;-53
2022/04/19 05:19:04;;;;;;;5.50;2.30;;;17.80;37.70;18.50;100570.00;;;;5007885;28;20238;-53
2022/04/19 05:21:30;;;;;;;2.50;2.30;;;17.80;37.70;18.50;100575.00;;;;5007583;28;20284;-53
2022/04/19 05:23:56;;;;;;;2.90;2.37;;;17.80;37.70;18.40;100574.00;;;;5007052;28;20172;-51
2022/04/19 05:26:24;;;;;;;2.30;2.10;;;17.80;37.70;18.40;100570.00;;;;5007163;28;20179;-53
2022/04/19 05:28:50;;;;;;;2.30;2.10;;;17.80;37.70;18.40;100575.00;;;;5007081;28;20190;-54
2022/04/19 05:31:16;;;;;;;2.30;2.10;;;17.70;37.60;18.40;100577.00;;;;5006321;28;20188;-54
2022/04/19 05:33:42;;;;;;;3.50;2.30;;;17.70;37.60;18.40;100567.00;;;;5006967;28;20180;-54
2022/04/19 05:36:07;;;;;;;2.40;2.20;;;17.70;37.80;18.40;100568.00;;;;5006578;28;20189;-52
2022/04/19 05:38:33;;;;;;;2.23;2.03;;;17.70;37.70;18.40;100578.00;;;;5007828;28;20691;-53
2022/04/19 05:40:59;;;;;;;2.33;2.10;;;17.70;37.70;18.40;100570.00;;;;5007003;28;20172;-53
2022/04/19 05:43:25;;;;;;;2.87;2.20;;;17.70;37.70;18.40;100581.00;;;;5007248;28;20224;-52
2022/04/19 05:45:51;;;;;;;2.20;2.07;;;17.60;37.70;18.40;100574.00;;;;5006736;28;20283;-52
2022/04/19 05:48:17;;;;;;;2.57;2.23;;;17.60;37.70;18.40;100580.00;;;;5007450;28;20310;-52
2022/04/19 05:50:43;;;;;;;3.23;2.10;;;17.60;37.80;18.40;100569.00;;;;5007229;28;20181;-52
2022/04/19 05:53:09;;;;;;;2.30;2.10;;;17.60;37.80;18.20;100578.00;;;;5007076;28;20243;-53
2022/04/19 05:55:35;;;;;;;2.60;2.30;;;17.60;37.80;18.30;100586.00;;;;5007282;28;20207;-52
2022/04/19 05:58:00;;;;;;;2.40;2.20;;;17.60;37.90;18.30;100570.00;;;;5007065;28;20181;-53
2022/04/19 06:00:26;;;;;;;2.20;2.00;;;17.60;37.90;18.30;100572.00;;;;5007041;28;20184;-53
2022/04/19 06:05:36;;;;;;;2.43;2.23;;;17.60;38.00;18.30;100566.00;;;;5006436;28;20721;-53
2022/04/19 06:08:02;;;;;;;2.23;2.03;;;17.50;38.00;18.30;100573.00;;;;5006438;28;20180;-52
2022/04/19 06:10:28;;;;;;;2.23;2.10;;;17.60;38.70;18.30;100579.00;;;;5007111;28;20241;-52
2022/04/19 06:12:53;;;;;;;2.43;2.10;;;17.50;38.00;18.30;100582.00;;;;5006503;28;20207;-53
2022/04/19 06:15:19;;;;;;;2.50;2.30;;;17.60;38.10;18.30;100580.00;;;;5006191;28;20209;-53
2022/04/19 06:17:45;;;;;;;2.50;2.30;;;17.50;38.00;18.30;100575.00;;;;5006216;28;20255;-52
2022/04/19 06:20:12;;;;;;;2.43;2.23;;;17.50;38.10;18.20;100573.00;;;;5006177;28;20169;-52
2022/04/19 06:22:38;;;;;;;2.17;1.97;;;17.50;38.20;18.30;100580.00;;;;5006324;28;20723;-53
2022/04/19 06:25:04;;;;;;;2.10;2.00;;;17.50;38.20;18.20;100576.00;;;;5006032;28;20843;-53
2022/04/19 06:27:30;;;;;;;2.10;2.00;;;17.50;38.30;18.20;100564.00;;;;5006336;28;20181;-53
2022/04/19 06:29:57;;;;;;;2.17;2.03;;;17.50;38.30;18.20;100569.00;;;;5006329;28;20187;-52
2022/04/19 06:32:24;;;;;;;2.07;1.97;;;17.50;38.40;18.20;100571.00;;;;5005964;28;20692;-53
2022/04/19 06:34:50;;;;;;;2.20;2.00;;;17.40;38.30;18.20;100560.00;;;;5005843;28;20219;-52
2022/04/19 06:37:15;;;;;;;2.00;1.90;;;17.50;38.50;18.20;100565.00;;;;5005546;28;20171;-53
2022/04/19 06:39:41;;;;;;;2.20;2.00;;;17.50;38.50;18.20;100571.00;;;;5005059;28;20168;-53
2022/04/19 06:42:07;;;;;;;2.13;1.93;;;17.50;38.60;18.20;100572.00;;;;5005978;28;20611;-53
2022/04/19 06:44:34;;;;;;;2.40;2.20;;;17.40;38.60;18.20;100578.00;;;;5005449;28;20574;-53
2022/04/19 06:46:59;;;;;;;2.10;2.00;;;17.40;38.60;18.20;100572.00;;;;5005146;28;20189;-53
2022/04/19 06:49:25;;;;;;;2.10;2.00;;;17.40;38.70;18.20;100577.00;;;;5006781;28;20688;-53
2022/04/19 06:51:51;;;;;;;2.30;2.10;;;17.40;38.70;18.10;100577.00;;;;5006629;28;20188;-53
2022/04/19 06:54:17;;;;;;;2.00;1.90;;;17.40;38.80;18.10;100582.00;;;;5006676;28;20172;-54
2022/04/19 06:56:45;;;;;;;2.10;2.00;;;17.40;38.80;18.10;100572.00;;;;5018649;28;20184;-53
2022/04/19 06:59:11;;;;;;;2.10;2.00;;;17.40;38.90;18.10;100571.00;;;;5017760;28;20207;-54
2022/04/19 07:01:42;;;;;;;2.00;1.90;;;17.40;38.90;18.10;100571.00;;;;5010879;28;20207;-53
2022/04/19 07:04:08;;;;;;;2.10;2.00;;;17.40;39.00;18.10;100572.00;;;;5006157;28;20167;-53
2022/04/19 07:06:34;;;;;;;2.17;2.03;;;17.30;39.10;18.10;100580.00;;;;5005770;28;20781;-53
2022/04/19 07:09:00;;;;;;;2.13;1.97;;;17.30;39.10;18.10;100573.00;;;;5005621;28;20171;-53
2022/04/19 07:11:26;;;;;;;2.27;2.07;;;17.40;39.20;18.10;100566.00;;;;5005621;28;20218;-53
2022/04/19 07:13:51;;;;;;;2.07;1.93;;;17.30;39.10;18.10;100569.00;;;;5004026;28;20792;-52
2022/04/19 07:16:17;;;;;;;2.00;1.90;;;17.30;39.20;18.10;100562.00;;;;5005346;28;20191;-53
2022/04/19 07:18:43;;;;;;;2.00;1.80;;;17.30;39.20;18.10;100578.00;;;;5006012;28;20239;-53
2022/04/19 07:26:45;;;;;;;2.30;2.10;;;17.30;39.40;18.10;100575.00;;;;5005117;28;20163;-53
2022/04/19 07:29:18;;;;;;;2.20;2.00;;;17.30;39.50;18.10;100571.00;;;;5005669;28;20191;-53
2022/04/19 07:31:47;;;;;;;2.00;1.90;;;17.30;39.60;18.10;100570.00;;;;5005257;28;20845;-53
2022/04/19 07:34:13;;;;;;;2.23;2.03;;;17.30;39.60;18.10;100569.00;;;;5004877;28;20255;-52
2022/04/19 07:36:41;;;;;;;2.07;1.97;;;17.30;39.70;18.10;100572.00;;;;5004802;28;20776;-54
2022/04/19 07:39:08;;;;;;;2.17;2.00;;;17.30;39.70;18.10;100570.00;;;;5005584;28;20168;-54
2022/04/19 07:41:34;;;;;;;2.30;2.10;;;17.30;39.80;18.10;100572.00;;;;5005385;28;20203;-53
2022/04/19 07:44:01;;;;;;;2.10;2.00;;;17.30;39.80;18.10;100568.00;;;;5005401;28;20198;-54
2022/04/19 07:46:28;;;;;;;2.23;2.03;;;17.30;39.90;18.10;100575.00;;;;5005720;28;20179;-54
2022/04/19 07:48:54;;;;;;;2.07;1.97;;;17.30;40.00;18.10;100569.00;;;;5006668;28;20781;-53
2022/04/19 07:51:20;;;;;;;2.30;2.10;;;17.30;40.00;18.10;100569.00;;;;5007515;28;20249;-53
2022/04/19 07:53:45;;;;;;;2.10;2.00;;;17.30;40.00;18.10;100572.00;;;;5006450;28;20177;-53
2022/04/19 07:56:11;;;;;;;2.27;2.07;;;17.30;40.10;18.10;100572.00;;;;5006011;28;20222;-55
2022/04/19 07:58:37;;;;;;;2.27;2.07;;;17.30;40.20;18.10;100582.00;;;;5006033;28;20172;-53
2022/04/19 08:01:03;;;;;;;2.13;2.03;;;17.30;40.30;18.10;100571.00;;;;5006632;28;20190;-54
2022/04/19 08:03:29;;;;;;;1.90;1.80;;;17.30;40.70;18.10;100574.00;;;;4924259;28;20234;-54
2022/04/19 08:05:55;;;;;;;2.50;2.30;;;17.30;40.70;18.10;100576.00;;;;5026991;28;20187;-54
2022/04/19 08:08:21;;;;;;;3.60;2.30;;;17.30;40.70;18.10;100568.00;;;;5026544;28;20257;-53
2022/04/19 08:10:48;;;;;;;2.10;2.00;;;17.30;41.00;18.10;100568.00;;;;5030695;28;20175;-53
2022/04/19 08:13:14;;;;;;;2.20;2.00;;;17.30;41.00;18.10;100566.00;;;;5030195;28;20171;-54
2022/04/19 08:15:40;;;;;;;2.53;2.20;;;17.30;41.10;18.10;100569.00;;;;5030239;28;20199;-52
2022/04/19 08:18:06;;;;;;;2.73;2.10;;;17.30;41.40;18.10;100567.00;;;;5031104;28;20171;-52
2022/04/19 08:20:31;;;;;;;2.20;2.00;;;17.30;41.40;18.10;100568.00;;;;5031273;28;20167;-52
2022/04/19 08:22:57;;;;;;;2.30;2.10;;;17.30;41.40;18.10;100564.00;;;;5030927;28;20194;-53
2022/04/19 08:25:23;;;;;;;2.20;2.00;;;17.30;41.60;18.10;100568.00;;;;5031365;28;20569;-54
2022/04/19 08:27:48;;;;;;;2.33;2.10;;;17.20;41.70;18.10;100559.00;;;;5031002;28;20179;-53
2022/04/19 08:30:15;;;;;;;2.30;2.10;;;17.30;41.80;18.10;100556.00;;;;5031016;28;20171;-52
2022/04/19 08:32:45;;;;;;;4.93;2.40;;;17.30;42.20;18.00;100557.00;;;;5029348;28;20293;-53
2022/04/19 08:35:11;;;;;;;4.13;2.40;;;17.30;42.50;18.00;100554.00;;;;5030755;28;20856;-54
2022/04/19 08:37:37;;;;;;;4.77;2.63;;;17.30;42.50;18.00;100562.00;;;;5030917;28;20179;-53
2022/04/19 08:40:08;;;;;;;3.07;2.27;;;17.30;42.30;18.00;100543.00;;;;5041032;28;20572;-53
2022/04/19 08:42:34;;;;;;;4.43;2.40;;;17.30;42.10;18.10;100549.00;;;;5040212;28;20187;-52
2022/04/19 08:45:03;;;;;;;4.67;2.33;;;17.30;42.40;18.10;100549.00;;;;5034480;28;20565;-53
2022/04/19 08:47:31;;;;;;;8.33;2.63;;;17.30;42.60;18.10;100553.00;;;;5030556;28;20186;-52
2022/04/19 08:49:57;;;;;;;7.07;2.90;;;17.40;43.20;18.10;100555.00;;;;5031182;28;20560;-52
2022/04/19 08:52:22;;;;;;;24.10;5.93;;;17.40;43.30;18.10;100552.00;;;;5029643;28;20198;-53
2022/04/19 08:57:34;;;;;;;42.93;7.10;;;17.40;44.10;18.10;100539.00;;;;5030506;28;20218;-52
2022/04/19 09:00:00;;;;;;;48.90;6.53;;;17.50;45.00;18.10;100540.00;;;;5030547;28;20652;-52
2022/04/19 09:02:28;;;;;;;33.30;6.30;;;17.50;44.70;18.20;100545.00;;;;5030359;28;20201;-52
2022/04/19 09:04:54;;;;;;;40.07;7.03;;;17.50;45.20;18.20;100539.00;;;;4955484;28;20172;-53
2022/04/19 09:07:23;;;;;;;42.77;8.00;;;17.50;45.40;18.10;100546.00;;;;5009295;28;20172;-51
2022/04/19 09:10:01;;;;;;;45.47;6.80;;;17.50;45.80;18.20;100537.00;;;;5010153;28;20657;-52
2022/04/19 09:12:27;;;;;;;50.03;6.87;;;17.50;45.60;18.10;100540.00;;;;5010197;28;20196;-53
2022/04/19 09:15:06;;;;;;;61.07;8.50;;;17.50;45.40;18.10;100549.00;;;;5010159;28;20227;-52
2022/04/19 09:17:42;;;;;;;39.50;6.50;;;17.40;45.20;18.10;100545.00;;;;5010305;28;20202;-52
2022/04/19 09:20:13;;;;;;;37.03;5.80;;;17.40;45.70;18.10;100545.00;;;;5010215;28;20183;-51
2022/04/19 09:22:39;;;;;;;23.03;5.40;;;17.40;46.30;18.10;100551.00;;;;5011564;28;20242;-51
2022/04/19 09:25:26;;;;;;;20.50;5.00;;;17.50;45.50;18.10;100546.00;;;;5016756;28;20891;-51
2022/04/19 09:27:56;;;;;;;27.50;5.03;;;17.50;45.60;18.10;100541.00;;;;5030037;28;20246;-51
2022/04/19 09:30:34;;;;;;;20.97;4.97;;;17.50;45.70;18.20;100528.00;;;;5030150;28;20198;-50
2022/04/19 09:33:16;;;;;;;26.03;5.30;;;17.50;45.70;18.20;100541.00;;;;5030288;28;20201;-51
2022/04/19 09:35:47;;;;;;;14.83;4.63;;;17.50;45.30;18.20;100531.00;;;;5030056;28;20222;-51
2022/04/19 09:38:13;;;;;;;16.57;4.20;;;17.50;45.10;18.20;100529.00;;;;5029799;28;20175;-51
2022/04/19 09:40:49;;;;;;;13.83;4.10;;;17.50;45.00;18.20;100532.00;;;;5030177;28;20195;-51
2022/04/19 09:43:20;;;;;;;19.77;4.33;;;17.50;44.90;18.20;100528.00;;;;5029765;28;20628;-51
2022/04/19 09:45:54;;;;;;;14.83;4.20;;;17.50;44.90;18.20;100525.00;;;;5030575;28;20213;-52
2022/04/19 09:48:28;;;;;;;14.73;3.87;;;17.50;44.80;18.20;100526.00;;;;5030573;28;20159;-52
2022/04/19 09:51:02;;;;;;;10.47;4.17;;;17.50;44.80;18.20;100523.00;;;;5031579;28;20188;-49
2022/04/19 09:53:29;;;;;;;16.17;3.87;;;17.60;44.90;18.30;100519.00;;;;5029864;28;20248;-52
2022/04/19 09:55:56;;;;;;;15.57;3.77;;;17.60;44.90;18.30;100509.00;;;;5030014;28;20210;-52
2022/04/19 09:58:22;;;;;;;11.73;3.67;;;17.60;44.80;18.30;100517.00;;;;5029280;28;20180;-51
2022/04/19 10:00:49;;;;;;;10.43;3.60;;;17.60;44.70;18.30;100508.00;;;;5028777;28;20198;-51
2022/04/19 10:08:46;;;;;;;13.27;3.80;;;17.70;44.60;18.30;100506.00;;;;5029152;28;20622;-51
2022/04/19 10:11:11;;;;;;;9.00;3.00;;;17.70;44.80;18.40;100494.00;;;;5027990;28;20310;-49
2022/04/19 10:13:38;;;;;;;9.43;3.43;;;17.70;44.60;18.40;100507.00;;;;5027392;28;20167;-50
2022/04/19 10:16:04;;;;;;;8.70;3.10;;;17.70;45.10;18.40;100499.00;;;;5028069;28;20194;-50
2022/04/19 10:18:30;;;;;;;6.70;3.07;;;17.80;45.20;18.40;100520.00;;;;5027848;28;20708;-51
2022/04/19 10:21:00;;;;;;;9.43;3.07;;;17.80;45.00;18.40;100500.00;;;;5029112;28;20171;-51
2022/04/19 10:23:36;;;;;;;9.57;3.20;;;17.80;44.90;18.50;100508.00;;;;5010602;28;20171;-51
2022/04/19 10:26:22;;;;;;;7.97;2.87;;;17.90;44.90;18.50;100489.00;;;;5029119;28;20179;-51
2022/04/19 10:28:53;;;;;;;5.43;2.87;;;17.90;45.10;18.50;100490.00;;;;5029690;28;20537;-51
2022/04/19 10:31:35;;;;;;;9.50;3.00;;;17.90;45.20;18.50;100496.00;;;;5029515;28;20196;-52
2022/04/19 10:34:04;;;;;;;9.60;2.77;;;17.90;44.70;18.50;100496.00;;;;5028928;28;20195;-52
2022/04/19 10:36:33;;;;;;;6.77;2.90;;;17.90;44.70;18.50;100493.00;;;;5027794;28;20198;-50
2022/04/19 10:39:14;;;;;;;7.20;2.93;;;17.90;44.90;18.60;100503.00;;;;5029077;28;20336;-51
2022/04/19 10:41:56;;;;;;;7.07;2.80;;;17.90;44.70;18.60;100505.00;;;;5029504;28;20215;-51
2022/04/19 10:44:45;;;;;;;4.37;2.70;;;17.90;44.80;18.60;100502.00;;;;5029396;28;20182;-53
2022/04/19 10:47:20;;;;;;;3.80;2.23;;;17.90;44.80;18.60;100491.00;;;;5029040;28;20174;-52
2022/04/19 10:49:59;;;;;;;4.93;2.63;;;17.90;45.00;18.60;100482.00;;;;5029286;28;20183;-50
2022/04/19 10:52:39;;;;;;;4.63;2.60;;;18.00;45.00;18.60;100485.00;;;;5028781;28;20192;-50
2022/04/19 10:55:25;;;;;;;3.80;2.60;;;18.00;44.60;18.70;100413.00;;;;5027942;28;20190;-51
2022/04/19 10:58:08;;;;;;;3.17;2.30;;;18.00;44.60;18.70;100481.00;;;;5028894;28;20252;-52
2022/04/19 11:00:34;;;;;;;5.20;2.60;;;18.00;44.90;18.70;100487.00;;;;5028878;28;20271;-55
2022/04/19 11:03:10;;;;;;;4.70;2.50;;;18.10;44.80;18.70;100483.00;;;;5029156;28;20334;-53
2022/04/19 11:05:43;;;;;;;3.43;2.30;;;18.10;44.50;18.80;100480.00;;;;5028819;28;20649;-51
2022/04/19 11:08:30;;;;;;;6.00;2.70;;;18.20;44.50;18.50;100506.00;;;;5026958;28;20173;-52
2022/04/19 11:10:56;;;;;;;3.90;2.50;;;18.20;44.10;18.80;100476.00;;;;4997010;28;20186;-52
2022/04/19 11:13:27;;;;;;;7.33;2.40;;;18.30;43.90;18.90;100476.00;;;;5028275;28;20165;-52
2022/04/19 11:16:16;;;;;;;3.87;2.27;;;18.30;44.00;18.90;100475.00;;;;5027526;28;20708;-53
2022/04/19 11:18:42;;;;;;;2.67;2.30;;;18.30;44.10;18.90;100464.00;;;;5043214;28;20169;-50